createdAt,value
2023-01-19T02:01:59.424Z,95.27
2023-01-19T02:04:28.819Z,94.57
2023-01-19T02:07:15.269Z,94.21
2023-01-19T02:10:01.949Z,93.81
2023-01-19T02:12:48.026Z,93.36
2023-01-19T02:15:17.416Z,93.01
2023-01-19T02:17:48.846Z,92.73
2023-01-19T02:20:16.142Z,92.64
2023-01-19T02:22:47.013Z,92.64
2023-01-19T02:25:13.962Z,92.61
2023-01-19T02:27:41.129Z,92.31
2023-01-19T02:30:09.535Z,92.33
2023-01-19T02:32:37.520Z,92.12
2023-01-19T02:35:05.797Z,92.02
2023-01-19T02:37:53.394Z,91.97
2023-01-19T02:40:20.770Z,91.79
2023-01-19T02:42:51.678Z,91.77
2023-01-19T02:45:22.172Z,91.88
2023-01-19T02:47:51.347Z,92.00
2023-01-19T02:50:46.026Z,92.04
2023-01-19T02:53:50.201Z,92.11
2023-01-19T02:56:24.676Z,92.26
2023-01-19T02:59:41.346Z,92.33
2023-01-19T03:02:17.084Z,92.15
2023-01-19T03:05:16.857Z,92.13
2023-01-19T03:07:54.020Z,91.95
2023-01-19T03:10:36.069Z,91.72
2023-01-19T03:13:31.113Z,91.81
2023-01-19T03:16:26.885Z,91.61
2023-01-19T03:19:06.055Z,91.64
2023-01-19T03:21:33.847Z,91.71
2023-01-19T03:24:03.451Z,91.81
2023-01-19T03:26:32.242Z,91.91
2023-01-19T03:28:59.349Z,91.57
2023-01-19T03:31:27.459Z,91.72
2023-01-19T03:34:01.684Z,91.76
2023-01-19T03:36:51.829Z,91.77
2023-01-19T03:39:22.246Z,92.03
2023-01-19T03:41:52.402Z,92.26
2023-01-19T03:44:19.717Z,92.08
2023-01-19T03:46:47.769Z,92.02
2023-01-19T03:49:14.929Z,91.98
2023-01-19T03:51:42.495Z,91.95
2023-01-19T03:54:10.131Z,91.91
2023-01-19T03:56:37.730Z,91.88
2023-01-19T03:59:07.739Z,92.01
2023-01-19T04:01:35.441Z,92.18
2023-01-19T04:04:03.604Z,92.09
2023-01-19T04:06:31.683Z,92.42
2023-01-19T04:08:58.687Z,92.48
2023-01-19T04:11:26.258Z,92.41
2023-01-19T04:13:53.262Z,92.49
2023-01-19T04:16:21.809Z,92.39
2023-01-19T04:18:49.539Z,92.34
2023-01-19T04:21:16.635Z,92.35
2023-01-19T04:23:45.529Z,92.45
2023-01-19T04:26:12.659Z,92.30
2023-01-19T04:28:39.669Z,92.12
2023-01-19T04:31:07.442Z,92.32
2023-01-19T04:33:34.896Z,92.22
2023-01-19T04:36:02.816Z,92.08
2023-01-19T04:38:32.321Z,91.96
2023-01-19T04:40:59.493Z,91.93
2023-01-19T04:43:26.763Z,91.53
2023-01-19T04:45:54.092Z,91.43
2023-01-19T04:48:21.533Z,91.52
2023-01-19T04:50:51.967Z,91.52
2023-01-19T04:53:19.064Z,91.47
2023-01-19T04:55:48.607Z,91.64
2023-01-19T04:58:16.037Z,91.50
2023-01-19T05:00:43.299Z,91.48
2023-01-19T05:03:11.826Z,91.47
2023-01-19T05:05:40.140Z,91.55
2023-01-19T05:08:07.987Z,91.42
2023-01-19T05:10:36.849Z,91.53
2023-01-19T05:13:06.119Z,91.50
2023-01-19T05:15:34.461Z,91.56
2023-01-19T05:18:01.885Z,91.47
2023-01-19T05:20:29.452Z,91.47
2023-01-19T05:23:01.425Z,91.29
2023-01-19T05:25:29.072Z,91.31
2023-01-19T05:27:56.312Z,91.33
2023-01-19T05:30:23.236Z,91.38
2023-01-19T05:32:51.822Z,91.34
2023-01-19T05:35:27.773Z,91.35
2023-01-19T05:37:58.869Z,91.25
2023-01-19T05:40:26.219Z,91.29
2023-01-19T05:43:00.522Z,91.19
2023-01-19T05:45:38.561Z,91.31
2023-01-19T05:48:09.499Z,91.15
2023-01-19T05:50:38.080Z,90.98
2023-01-19T05:53:07.534Z,90.87
2023-01-19T05:55:34.925Z,90.83
2023-01-19T05:58:02.551Z,90.64
2023-01-19T06:00:29.964Z,90.61
2023-01-19T06:02:57.183Z,90.33
2023-01-19T06:05:25.154Z,90.23
2023-01-19T06:07:52.614Z,90.24
2023-01-19T06:10:20.499Z,90.15
2023-01-19T06:12:48.504Z,90.03
2023-01-19T06:15:16.449Z,90.07
2023-01-19T06:17:43.824Z,89.98
2023-01-19T06:20:13.658Z,89.68
2023-01-19T06:22:42.234Z,89.41
2023-01-19T06:25:11.431Z,89.01
2023-01-19T06:27:53.068Z,88.75
2023-01-19T06:30:20.336Z,88.46
2023-01-19T06:32:48.098Z,87.95
2023-01-19T06:35:29.883Z,87.51
2023-01-19T06:38:00.140Z,87.20
2023-01-19T06:40:32.157Z,87.06
2023-01-19T06:42:59.671Z,86.74
2023-01-19T06:45:28.600Z,86.56
2023-01-19T06:48:26.656Z,86.28
2023-01-19T06:50:54.882Z,86.13
2023-01-19T06:53:25.788Z,85.77
2023-01-19T06:55:53.524Z,85.25
2023-01-19T06:58:21.715Z,84.93
2023-01-19T07:00:52.414Z,84.64
2023-01-19T10:24:06.869Z,73.37
2023-01-19T10:40:50.842Z,70.58
2023-01-19T10:53:06.634Z,69.27
2023-01-19T11:33:32.975Z,65.01
2023-01-19T11:45:20.036Z,65.14
2023-01-19T11:48:02.466Z,65.51
2023-01-19T14:13:24.944Z,70.62
2023-01-19T14:16:27.179Z,71.08
2023-01-19T15:24:41.256Z,76.92
2023-01-19T15:27:19.778Z,77.23
2023-01-19T15:29:58.518Z,77.31
2023-01-19T15:32:33.649Z,77.48
2023-01-19T17:50:16.589Z,81.37
2023-01-19T18:25:26.271Z,81.34
2023-01-19T18:35:38.244Z,81.72
2023-01-19T19:06:58.338Z,80.95
2023-01-19T19:09:48.459Z,80.91
2023-01-19T19:12:35.348Z,80.87
2023-01-19T19:27:15.117Z,80.67
2023-01-19T20:53:26.770Z,80.23
2023-01-19T21:12:19.685Z,80.76
2023-01-19T21:14:47.908Z,80.80
2023-01-19T21:17:18.849Z,80.75
2023-01-19T21:19:58.603Z,80.96
2023-01-19T21:22:27.186Z,80.85
2023-01-19T21:25:12.737Z,80.85
2023-01-19T21:28:08.995Z,80.84
2023-01-19T21:30:56.584Z,80.93
2023-01-19T21:33:25.326Z,81.14
2023-01-19T21:36:04.857Z,81.33
2023-01-19T21:41:24.399Z,81.50
2023-01-19T21:43:54.115Z,81.40
2023-01-19T21:46:29.752Z,81.63
2023-01-19T21:49:03.094Z,81.87
2023-01-19T21:51:38.435Z,81.87
2023-01-19T21:54:06.966Z,81.87
2023-01-19T21:56:34.267Z,81.98
2023-01-19T21:59:02.879Z,82.08
2023-01-19T22:01:32.796Z,82.15
2023-01-19T22:04:04.624Z,82.14
2023-01-19T22:06:31.713Z,82.23
2023-01-19T22:09:00.465Z,82.26
2023-01-19T22:11:28.227Z,82.24
2023-01-19T22:13:55.910Z,82.49
2023-01-19T22:16:23.675Z,82.54
2023-01-19T22:19:00.984Z,82.82
2023-01-19T22:21:32.799Z,83.02
2023-01-19T22:24:00.652Z,83.17
2023-01-19T22:26:29.558Z,83.45
2023-01-19T22:30:27.697Z,83.76
2023-01-19T22:32:55.721Z,83.71
2023-01-19T22:35:25.310Z,83.72
2023-01-19T22:37:54.927Z,83.95
2023-01-19T22:40:23.059Z,83.92
2023-01-19T22:42:50.420Z,83.78
2023-01-19T22:45:20.866Z,83.73
2023-01-19T22:47:54.770Z,83.73
2023-01-19T22:54:10.384Z,83.17
2023-01-19T22:56:39.469Z,83.10
2023-01-19T22:59:06.833Z,83.04
2023-01-19T23:01:57.813Z,83.05
2023-01-19T23:04:25.412Z,82.94
2023-01-19T23:06:52.756Z,82.84
2023-01-19T23:09:19.783Z,82.90
2023-01-19T23:11:50.877Z,82.90
2023-01-19T23:14:20.873Z,82.95
2023-01-19T23:16:48.052Z,82.97
2023-01-19T23:19:25.856Z,82.98
2023-01-19T23:21:53.101Z,82.74
2023-01-19T23:24:21.831Z,82.64
2023-01-19T23:26:50.127Z,82.62
2023-01-19T23:29:19.232Z,82.55
2023-01-19T23:31:47.614Z,82.41
2023-01-19T23:34:17.439Z,82.38
2023-01-19T23:36:44.722Z,82.44
2023-01-19T23:39:14.624Z,82.38
2023-01-19T23:41:46.374Z,82.50
2023-01-19T23:44:15.163Z,82.51
2023-01-19T23:46:43.732Z,82.36
2023-01-19T23:49:13.438Z,82.34
2023-01-19T23:51:40.480Z,82.23
2023-01-19T23:54:07.700Z,82.02
2023-01-19T23:56:36.341Z,81.97
2023-01-19T23:59:09.545Z,81.71
